createdAt,value
2022-08-06T00:02:06.361Z,9.20
2022-08-06T00:05:10.008Z,8.45
2022-08-06T00:08:21.648Z,13.05
2022-08-06T00:11:26.713Z,14.65
2022-08-06T00:14:31.380Z,13.40
2022-08-06T00:17:39.161Z,11.90
2022-08-06T00:20:42.899Z,12.20
2022-08-06T00:23:52.424Z,18.77
2022-08-06T00:27:05.600Z,18.77
2022-08-06T00:30:18.273Z,18.60
2022-08-06T00:33:25.365Z,14.65
2022-08-06T00:36:46.903Z,13.55
2022-08-06T00:39:51.850Z,11.80
2022-08-06T00:42:55.806Z,15.63
2022-08-06T00:45:58.967Z,11.87
2022-08-06T00:49:11.408Z,11.80
2022-08-06T00:52:19.678Z,13.52
2022-08-06T00:55:31.922Z,12.23
2022-08-06T00:58:41.258Z,12.88
2022-08-06T01:01:49.632Z,12.73
2022-08-06T01:05:00.865Z,10.65
2022-08-06T01:08:10.929Z,12.65
2022-08-06T01:11:17.102Z,16.35
2022-08-06T01:14:31.734Z,12.25
2022-08-06T01:18:08.263Z,16.30
2022-08-06T01:22:29.369Z,12.25
2022-08-06T01:25:27.864Z,13.52
2022-08-06T01:29:01.405Z,9.20
2022-08-06T01:32:12.712Z,11.10
2022-08-06T01:35:46.888Z,13.70
2022-08-06T01:38:59.571Z,12.75
2022-08-06T01:42:06.248Z,9.32
2022-08-06T01:45:13.391Z,10.00
2022-08-06T01:48:28.532Z,10.68
2022-08-06T01:52:13.924Z,11.00
2022-08-06T01:54:59.950Z,8.32
2022-08-06T01:58:19.325Z,13.25
2022-08-06T02:01:53.422Z,9.98
2022-08-06T02:05:00.835Z,8.93
2022-08-06T02:08:38.537Z,8.83
2022-08-06T02:12:03.809Z,11.35
2022-08-06T02:15:23.701Z,8.95
2022-08-06T02:18:48.332Z,8.50
2022-08-06T02:21:58.189Z,11.48
2022-08-06T02:25:05.264Z,8.67
2022-08-06T02:28:25.180Z,9.05
2022-08-06T02:31:29.100Z,11.82
2022-08-06T02:34:42.260Z,11.23
2022-08-06T02:38:01.332Z,11.27
2022-08-06T02:41:38.754Z,8.77
2022-08-06T02:45:22.845Z,9.85
2022-08-06T02:48:44.128Z,14.07
2022-08-06T02:52:17.894Z,10.38
2022-08-06T02:55:29.571Z,8.57
2022-08-06T02:58:58.048Z,7.77
2022-08-06T03:02:05.327Z,11.52
2022-08-06T03:05:54.965Z,8.60
2022-08-06T03:08:45.480Z,8.90
2022-08-06T03:11:50.358Z,7.88
2022-08-06T03:15:06.957Z,10.37
2022-08-06T03:18:16.525Z,10.27
2022-08-06T03:21:29.070Z,9.05
2022-08-06T03:24:42.456Z,11.63
2022-08-06T03:27:47.289Z,9.98
2022-08-06T03:30:53.575Z,8.10
2022-08-06T03:34:03.975Z,10.80
2022-08-06T03:37:09.556Z,9.88
2022-08-06T03:40:19.895Z,10.73
2022-08-06T03:43:28.338Z,11.30
2022-08-06T03:46:47.528Z,10.67
2022-08-06T03:50:00.547Z,8.85
2022-08-06T03:53:20.140Z,10.25
2022-08-06T03:56:30.444Z,9.70
2022-08-06T03:59:38.129Z,10.32
2022-08-06T04:02:52.019Z,11.67
2022-08-06T04:05:58.433Z,9.77
2022-08-06T04:09:02.703Z,11.48
2022-08-06T04:12:14.259Z,7.60
2022-08-06T04:15:30.377Z,10.25
2022-08-06T04:18:41.670Z,7.47
2022-08-06T04:23:05.963Z,10.63
2022-08-06T04:25:13.174Z,7.15
2022-08-06T04:28:18.490Z,9.85
2022-08-06T04:31:45.358Z,10.98
2022-08-06T04:36:06.551Z,14.10
2022-08-06T04:38:12.860Z,8.30
2022-08-06T04:41:16.712Z,7.10
2022-08-06T04:44:20.253Z,8.82
2022-08-06T04:47:25.518Z,7.47
2022-08-06T04:50:45.353Z,8.63
2022-08-06T04:53:57.676Z,9.50
2022-08-06T04:57:21.798Z,8.48
2022-08-06T05:00:33.875Z,6.80
2022-08-06T05:04:05.524Z,7.90
2022-08-06T05:07:19.469Z,9.97
2022-08-06T05:10:32.345Z,7.60
2022-08-06T05:13:40.300Z,7.18
2022-08-06T05:16:52.518Z,6.20
2022-08-06T05:20:02.452Z,8.55
2022-08-06T05:23:27.844Z,6.93
2022-08-06T05:26:35.707Z,10.27
2022-08-06T05:29:41.784Z,8.82
2022-08-06T05:32:56.772Z,9.18
2022-08-06T05:36:05.265Z,8.52
2022-08-06T05:39:09.332Z,7.20
2022-08-06T05:42:32.474Z,6.72
2022-08-06T05:45:40.251Z,10.18
2022-08-06T05:49:57.283Z,8.70
2022-08-06T05:53:01.130Z,8.05
2022-08-06T05:56:13.394Z,7.77
2022-08-06T05:59:57.992Z,5.95
2022-08-06T06:03:05.048Z,7.20
2022-08-06T06:06:16.172Z,8.05
2022-08-06T06:09:22.041Z,10.80
2022-08-06T06:12:46.217Z,13.47
2022-08-06T06:16:14.107Z,11.93
2022-08-06T06:19:38.885Z,9.02
2022-08-06T06:22:46.842Z,10.10
2022-08-06T06:26:05.000Z,7.57
2022-08-06T06:29:15.336Z,7.70
2022-08-06T06:32:31.457Z,7.03
2022-08-06T06:35:43.709Z,6.35
2022-08-06T06:39:28.081Z,9.30
2022-08-06T06:43:03.921Z,7.70
2022-08-06T06:46:36.619Z,5.43
2022-08-06T06:50:03.179Z,11.73
2022-08-06T06:53:10.853Z,10.05
2022-08-06T06:56:20.222Z,7.13
2022-08-06T07:00:04.179Z,10.73
2022-08-06T07:03:00.855Z,9.67
2022-08-06T07:06:10.173Z,6.57
2022-08-06T07:09:27.410Z,6.72
2022-08-06T07:12:45.892Z,7.53
2022-08-06T07:15:55.822Z,8.82
2022-08-06T07:19:02.640Z,8.07
2022-08-06T07:22:08.980Z,10.82
2022-08-06T07:25:15.941Z,8.57
2022-08-06T07:28:29.531Z,5.68
2022-08-06T07:31:36.650Z,6.20
2022-08-06T07:34:41.544Z,7.43
2022-08-06T07:37:54.207Z,6.60
2022-08-06T07:41:09.290Z,6.63
2022-08-06T07:44:14.928Z,7.30
2022-08-06T07:47:41.422Z,8.60
2022-08-06T07:50:58.196Z,7.60
2022-08-06T07:54:09.465Z,6.32
2022-08-06T07:57:15.314Z,7.50
2022-08-06T08:00:24.380Z,5.13
2022-08-06T08:03:57.672Z,7.47
2022-08-06T08:07:04.683Z,5.77
2022-08-06T08:10:12.029Z,4.72
2022-08-06T08:13:20.013Z,7.72
2022-08-06T08:16:43.749Z,7.15
2022-08-06T08:19:46.932Z,7.70
2022-08-06T08:22:55.673Z,6.77
2022-08-06T08:26:00.524Z,5.97
2022-08-06T08:29:04.357Z,5.45
2022-08-06T08:32:14.814Z,6.38
2022-08-06T08:35:18.149Z,6.72
2022-08-06T08:38:21.481Z,7.27
2022-08-06T08:41:43.008Z,5.95
2022-08-06T08:44:53.859Z,7.68
2022-08-06T08:47:59.928Z,6.15
2022-08-06T08:51:08.751Z,6.65
2022-08-06T08:54:17.501Z,8.13
2022-08-06T08:58:38.550Z,7.90
2022-08-06T09:00:50.429Z,6.20
2022-08-06T09:03:58.575Z,7.45
2022-08-06T09:07:03.640Z,5.35
2022-08-06T09:10:15.994Z,5.10
2022-08-06T09:13:22.833Z,10.23
2022-08-06T09:16:35.044Z,6.03
2022-08-06T09:19:41.613Z,6.00
2022-08-06T09:22:50.219Z,8.98
2022-08-06T09:25:57.766Z,7.97
2022-08-06T09:29:02.171Z,6.28
2022-08-06T09:32:55.018Z,7.00
2022-08-06T09:36:05.862Z,9.50
2022-08-06T09:39:11.254Z,7.10
2022-08-06T09:42:14.734Z,7.13
2022-08-06T09:45:25.385Z,6.65
2022-08-06T09:49:48.268Z,6.63
2022-08-06T09:52:26.543Z,6.95
2022-08-06T09:55:38.428Z,6.13
2022-08-06T09:58:44.938Z,7.40
2022-08-06T10:01:50.417Z,9.45
2022-08-06T10:04:54.850Z,5.88
2022-08-06T10:08:04.116Z,5.70
2022-08-06T10:11:08.353Z,6.28
2022-08-06T10:14:23.559Z,6.47
2022-08-06T10:17:49.350Z,5.82
2022-08-06T10:21:18.123Z,7.80
2022-08-06T10:24:42.203Z,6.47
2022-08-06T10:27:50.133Z,8.48
2022-08-06T10:30:56.632Z,8.90
2022-08-06T10:34:16.943Z,6.85
2022-08-06T10:37:47.877Z,7.43
2022-08-06T10:40:57.251Z,5.45
2022-08-06T10:44:03.391Z,6.50
2022-08-06T10:47:11.259Z,6.10
2022-08-06T10:50:31.125Z,6.57
2022-08-06T10:54:01.417Z,6.32
2022-08-06T10:57:13.354Z,5.40
2022-08-06T11:00:34.742Z,6.13
2022-08-06T11:04:01.074Z,6.30
2022-08-06T11:08:09.843Z,7.13
2022-08-06T11:11:22.881Z,7.30
2022-08-06T11:14:31.472Z,6.10
2022-08-06T11:17:44.033Z,6.28
2022-08-06T11:20:53.577Z,7.40
2022-08-06T11:24:02.073Z,7.90
2022-08-06T11:27:36.379Z,6.38
2022-08-06T11:30:54.345Z,6.03
2022-08-06T11:34:03.541Z,8.73
2022-08-06T11:38:01.189Z,7.63
2022-08-06T11:40:50.141Z,7.70
2022-08-06T11:44:03.251Z,13.65
2022-08-06T11:47:30.527Z,6.20
2022-08-06T11:50:41.147Z,8.48
2022-08-06T11:54:18.567Z,6.47
2022-08-06T11:57:41.965Z,6.93
2022-08-06T12:01:34.919Z,6.40
2022-08-06T12:04:47.866Z,7.10
2022-08-06T12:08:22.001Z,11.18
2022-08-06T12:11:39.235Z,7.17
2022-08-06T12:14:48.950Z,7.57
2022-08-06T12:18:20.370Z,9.18
2022-08-06T12:21:25.227Z,9.50
2022-08-06T12:24:45.233Z,7.80
2022-08-06T12:27:57.704Z,6.73
2022-08-06T12:31:23.651Z,5.72
2022-08-06T12:34:28.409Z,5.88
2022-08-06T12:37:41.500Z,6.88
2022-08-06T12:41:11.068Z,7.05
2022-08-06T12:44:20.191Z,6.10
2022-08-06T12:48:03.435Z,7.25
2022-08-06T12:51:14.461Z,7.50
2022-08-06T12:54:26.049Z,6.85
2022-08-06T12:57:58.357Z,6.32
2022-08-06T13:00:58.961Z,9.53
2022-08-06T13:04:04.920Z,6.38
2022-08-06T13:07:14.905Z,7.43
2022-08-06T13:10:34.424Z,6.53
2022-08-06T13:14:15.312Z,7.38
2022-08-06T13:17:18.951Z,5.80
2022-08-06T13:20:40.440Z,5.57
2022-08-06T13:23:54.064Z,7.25
2022-08-06T13:26:58.639Z,7.47
2022-08-06T13:30:33.654Z,5.88
2022-08-06T13:33:29.979Z,7.43
2022-08-06T13:36:43.220Z,7.80
2022-08-06T13:39:53.822Z,9.00
2022-08-06T13:42:59.236Z,9.90
2022-08-06T13:46:28.589Z,8.98
2022-08-06T13:49:35.322Z,7.10
2022-08-06T13:52:38.594Z,8.52
2022-08-06T13:56:01.422Z,7.65
2022-08-06T13:59:06.303Z,7.97
2022-08-06T14:02:11.740Z,6.68
2022-08-06T14:05:22.910Z,9.10
2022-08-06T14:08:35.861Z,8.23
2022-08-06T14:11:40.228Z,6.45
2022-08-06T14:14:48.062Z,9.40
2022-08-06T14:17:51.688Z,7.35
2022-08-06T14:20:55.181Z,6.67
2022-08-06T14:24:01.395Z,6.85
2022-08-06T14:27:15.009Z,7.43
2022-08-06T14:30:32.475Z,7.78
2022-08-06T14:33:47.522Z,6.22
2022-08-06T14:36:51.480Z,9.50
2022-08-06T14:39:57.609Z,8.80
2022-08-06T14:43:22.109Z,6.57
2022-08-06T14:46:30.370Z,6.68
2022-08-06T14:49:51.480Z,7.25
2022-08-06T14:52:56.108Z,7.33
2022-08-06T14:56:08.344Z,10.40
2022-08-06T14:59:12.402Z,5.78
2022-08-06T15:02:16.902Z,7.70
2022-08-06T15:05:41.529Z,5.85
2022-08-06T15:08:48.667Z,6.17
2022-08-06T15:11:59.517Z,5.90
2022-08-06T15:15:13.317Z,8.13
2022-08-06T15:18:54.030Z,6.50
2022-08-06T15:21:51.016Z,6.00
2022-08-06T15:25:00.921Z,7.90
2022-08-06T15:28:06.735Z,8.82
2022-08-06T15:31:10.544Z,7.60
2022-08-06T15:34:20.049Z,12.00
2022-08-06T15:37:54.349Z,5.88
2022-08-06T15:40:47.079Z,6.93
2022-08-06T15:43:53.759Z,8.68
2022-08-06T15:46:56.891Z,7.00
2022-08-06T15:50:05.705Z,6.53
2022-08-06T15:53:23.131Z,5.93
2022-08-06T15:56:34.355Z,9.77
2022-08-06T15:59:54.760Z,8.70
2022-08-06T16:02:57.929Z,6.60
2022-08-06T16:06:13.147Z,7.57
2022-08-06T16:09:29.299Z,7.28
2022-08-06T16:12:32.666Z,7.77
2022-08-06T16:15:37.528Z,5.63
2022-08-06T16:18:52.526Z,5.65
2022-08-06T16:21:56.184Z,7.90
2022-08-06T16:25:00.057Z,6.57
2022-08-06T16:28:03.638Z,7.90
2022-08-06T16:31:10.779Z,7.82
2022-08-06T16:34:25.323Z,12.88
2022-08-06T16:37:39.841Z,8.02
2022-08-06T16:40:48.014Z,7.72
2022-08-06T16:43:57.835Z,10.60
2022-08-06T16:47:06.328Z,5.93
2022-08-06T16:50:18.617Z,7.20
2022-08-06T16:54:12.309Z,7.47
2022-08-06T16:56:52.749Z,8.60
2022-08-06T17:06:45.497Z,9.43
2022-08-06T17:09:50.137Z,7.85
2022-08-06T17:12:57.806Z,6.72
2022-08-06T17:16:21.241Z,8.00
2022-08-06T17:19:27.769Z,8.13
2022-08-06T17:22:31.060Z,10.95
2022-08-06T17:25:51.268Z,6.22
2022-08-06T17:28:54.983Z,6.43
2022-08-06T17:31:59.396Z,7.77
2022-08-06T17:35:08.707Z,7.95
2022-08-06T17:41:46.414Z,7.60
2022-08-06T17:44:51.672Z,7.20
2022-08-06T17:47:54.857Z,12.10
2022-08-06T17:50:58.390Z,15.98
2022-08-06T17:54:44.329Z,12.90
2022-08-06T17:58:02.516Z,15.40
2022-08-06T18:01:09.942Z,15.02
2022-08-06T18:04:22.178Z,15.20
2022-08-06T18:08:12.210Z,15.77
2022-08-06T18:10:57.892Z,15.88
2022-08-06T18:14:02.011Z,13.75
2022-08-06T18:17:07.323Z,13.18
2022-08-06T18:20:11.465Z,18.60
2022-08-06T18:23:20.755Z,12.20
2022-08-06T18:26:30.698Z,15.25
2022-08-06T18:29:59.478Z,14.32
2022-08-06T18:33:01.206Z,15.77
2022-08-06T18:36:08.133Z,17.07
2022-08-06T18:39:14.596Z,10.93
2022-08-06T18:42:19.070Z,15.02
2022-08-06T18:45:22.921Z,11.55
2022-08-06T18:48:27.295Z,11.88
2022-08-06T18:51:34.108Z,13.13
2022-08-06T18:54:56.332Z,11.93
2022-08-06T18:58:04.653Z,14.15
2022-08-06T19:01:20.979Z,13.23
2022-08-06T19:04:28.467Z,13.90
2022-08-06T19:07:40.722Z,15.53
2022-08-06T19:10:53.713Z,13.50
2022-08-06T19:14:18.406Z,15.27
2022-08-06T19:17:22.583Z,13.43
2022-08-06T19:20:45.455Z,12.27
2022-08-06T19:24:01.966Z,13.20
2022-08-06T19:27:08.475Z,13.77
2022-08-06T19:30:41.043Z,15.13
2022-08-06T19:33:36.036Z,14.52
2022-08-06T19:36:40.761Z,14.52
2022-08-06T19:39:53.548Z,15.07
2022-08-06T19:44:26.183Z,17.25
2022-08-06T19:46:31.593Z,14.07
2022-08-06T19:49:40.575Z,15.82
2022-08-06T19:52:47.142Z,15.50
2022-08-06T19:56:06.450Z,18.00
2022-08-06T20:00:52.442Z,17.75
2022-08-06T20:02:36.596Z,16.05
2022-08-06T20:06:20.004Z,13.82
2022-08-06T20:09:29.231Z,17.58
2022-08-06T20:12:38.283Z,16.10
2022-08-06T20:15:45.870Z,16.75
2022-08-06T20:18:50.143Z,14.07
2022-08-06T20:21:56.800Z,14.80
2022-08-06T20:25:00.104Z,16.65
2022-08-06T20:29:09.358Z,17.27
2022-08-06T20:31:57.565Z,16.60
2022-08-06T20:35:00.809Z,15.60
2022-08-06T20:38:07.194Z,14.90
2022-08-06T20:41:56.925Z,14.18
2022-08-06T20:44:34.723Z,13.67
2022-08-06T20:47:48.791Z,13.80
2022-08-06T20:50:52.605Z,14.13
2022-08-06T20:54:02.106Z,13.13
2022-08-06T20:57:21.020Z,17.67
2022-08-06T21:00:30.041Z,12.40
2022-08-06T21:05:14.455Z,13.68
2022-08-06T21:06:56.373Z,12.90
2022-08-06T21:10:00.452Z,14.50
2022-08-06T21:13:08.208Z,11.77
2022-08-06T21:16:14.804Z,11.93
2022-08-06T21:19:41.225Z,10.40
2022-08-06T21:22:59.688Z,11.40
2022-08-06T21:26:03.154Z,13.48
2022-08-06T21:30:08.135Z,11.93
2022-08-06T21:32:36.275Z,14.77
2022-08-06T21:35:45.240Z,17.95
2022-08-06T21:38:48.448Z,10.95
2022-08-06T21:41:55.663Z,14.02
2022-08-06T21:45:03.035Z,11.43
2022-08-06T21:48:06.764Z,9.47
2022-08-06T21:51:10.401Z,12.23
2022-08-06T21:54:21.979Z,11.15
2022-08-06T21:57:48.365Z,9.05
2022-08-06T22:00:54.414Z,11.15
2022-08-06T22:04:38.959Z,9.27
2022-08-06T22:07:24.892Z,8.13
2022-08-06T22:10:52.552Z,10.55
2022-08-06T22:13:58.884Z,10.45
2022-08-06T22:17:05.033Z,12.55
2022-08-06T22:20:11.369Z,9.87
2022-08-06T22:23:25.895Z,9.68
2022-08-06T22:26:32.138Z,8.02
2022-08-06T22:29:54.153Z,8.35
2022-08-06T22:33:01.832Z,7.72
2022-08-06T22:36:14.600Z,8.73
2022-08-06T22:39:17.799Z,8.13
2022-08-06T22:42:56.057Z,15.10
2022-08-06T22:46:00.322Z,8.10
2022-08-06T22:49:12.878Z,8.70
2022-08-06T22:52:16.356Z,7.37
2022-08-06T22:55:22.595Z,6.65
2022-08-06T22:59:04.745Z,9.05
2022-08-06T23:02:03.136Z,6.70
2022-08-06T23:05:13.669Z,7.72
2022-08-06T23:08:18.412Z,8.57
2022-08-06T23:11:21.708Z,9.15
2022-08-06T23:14:31.665Z,9.77
2022-08-06T23:17:39.735Z,7.05
2022-08-06T23:20:43.949Z,9.15
2022-08-06T23:23:47.847Z,7.83
2022-08-06T23:26:53.061Z,7.03
2022-08-06T23:30:10.775Z,7.70
2022-08-06T23:33:15.083Z,7.28
2022-08-06T23:36:19.030Z,10.43
2022-08-06T23:39:38.389Z,7.27
2022-08-06T23:42:42.217Z,7.97
2022-08-06T23:45:48.081Z,7.25
2022-08-06T23:48:52.179Z,7.18
2022-08-06T23:52:03.329Z,7.97
2022-08-06T23:55:13.884Z,8.37
2022-08-06T23:58:18.618Z,6.50
